Data for 01/25/2005

Time Sea-Level Adjusted Pressure Absolute Pressure Temperature Relative Humidity Dew Point   
(mb) (inHg) (mb) (inHg) (C) (F) (%) (C) (F)
00:05 1019 30.09 848 25.04 2.3 36.1 48 -7.8 18
00:10 1019 30.09 848 25.04 2.7 36.9 46 -7.8 18
00:15 1019 30.09 848 25.04 3 37.5 45 -7.9 17.8
00:20 1019 30.09 848 25.04 2.9 37.2 44 -8.3 17.1
00:25 1019 30.09 848 25.04 3.2 37.8 44 -7.8 18
00:30 1019 30.09 848 25.04 3 37.3 45 -7.8 18
00:35 1019 30.09 848 25.04 2.8 37 47 -7.5 18.6
00:40 1019 30.09 848 25.04 2.6 36.7 47 -7.6 18.3
00:45 1019 30.09 848 25.04 3.1 37.7 44 -8 17.6
00:50 1019 30.09 848 25.04 3.3 38 42 -8.4 16.8
00:55 1019 30.09 848 25.04 3.3 38 44 -7.8 17.9
01:00 1019 30.09 848 25.04 3.1 37.6 44 -7.9 17.8
01:05 1019 30.09 848 25.04 3.2 37.8 42 -8.4 16.9
01:10 1019 30.09 848 25.04 3.1 37.6 43 -8.2 17.3
01:15 1019 30.09 848 25.04 2.9 37.1 44 -8.3 17
01:20 1019 30.09 848 25.04 2.6 36.7 45 -8.1 17.4
01:25 1019 30.09 848 25.04 2.4 36.3 46 -8.2 17.3
01:30 1019 30.09 848 25.04 2.7 36.9 43 -8.6 16.4
01:35 1019 30.09 848 25.04 2.8 37.1 44 -8.2 17.2
01:40 1019 30.09 848 25.04 2.4 36.3 46 -8 17.6
01:45 1019 30.09 848 25.04 2.1 35.8 46 -8.2 17.2
01:50 1019 30.09 848 25.04 2.3 36.1 45 -8.5 16.8
01:55 1019 30.09 848 25.04 2.4 36.2 46 -8.2 17.2
02:00 1019 30.09 848 25.04 2.2 36 45 -8.4 16.8
02:05 1019 30.09 848 25.04 2.3 36.1 45 -8.4 17
02:10 1019 30.09 848 25.04 2.2 36 46 -8.2 17.3
02:15 1019 30.09 848 25.04 1.8 35.2 49 -7.8 18
02:20 1019 30.09 848 25.04 1.3 34.4 51 -7.7 18.2
02:25 1019 30.09 848 25.04 1.2 34.1 51 -7.8 18
02:30 1019 30.09 848 25.04 1.2 34.1 51 -7.8 17.9
02:35 1019 30.09 848 25.04 1.3 34.4 50 -7.9 17.8
02:40 1019 30.09 849 25.07 1.7 35 48 -8.2 17.3
02:45 1019 30.09 849 25.07 1.8 35.3 47 -8.3 17.1
02:50 1019 30.09 849 25.07 1.9 35.5 47 -8.1 17.4
02:55 1020 30.12 849 25.07 1.9 35.5 49 -7.7 18.2
03:00 1020 30.12 849 25.07 2 35.6 49 -7.6 18.3
03:05 1020 30.12 849 25.07 1.8 35.3 50 -7.5 18.4
03:10 1020 30.12 849 25.07 1.8 35.2 49 -7.8 18
03:15 1020 30.12 849 25.07 1.8 35.2 50 -7.6 18.3
03:20 1020 30.12 849 25.07 1.7 35 50 -7.6 18.4
03:25 1020 30.12 849 25.07 1.6 34.9 51 -7.5 18.5
03:30 1020 30.12 849 25.07 1.6 34.9 51 -7.6 18.3
03:35 1020 30.12 849 25.07 1.7 35 50 -7.6 18.4
03:40 1020 30.12 849 25.07 1.5 34.7 52 -7.4 18.7
03:45 1020 30.12 849 25.07 1.5 34.6 52 -7.5 18.6
03:50 1020 30.12 849 25.07 1.4 34.6 52 -7.3 18.8
03:55 1020 30.12 849 25.07 1.6 34.8 51 -7.4 18.7
04:00 1020 30.12 849 25.07 1.6 34.8 51 -7.4 18.7
04:05 1020 30.12 849 25.07 1.4 34.5 52 -7.4 18.7
04:10 1020 30.12 849 25.07 1.4 34.5 52 -7.3 18.9
04:15 1020 30.12 849 25.07 1.4 34.5 53 -7.2 19.1
04:20 1020 30.12 849 25.07 1.2 34.2 54 -7.1 19.2
04:25 1020 30.12 849 25.07 1 33.9 54 -7.3 18.9
04:30 1020 30.12 849 25.07 1.1 34 53 -7.4 18.7
04:35 1020 30.12 849 25.07 1.3 34.3 52 -7.6 18.3
04:40 1020 30.12 849 25.07 1.6 34.8 51 -7.6 18.3
04:45 1020 30.12 849 25.07 1.6 34.9 50 -7.8 17.9
04:50 1020 30.12 849 25.07 2 35.5 48 -7.8 18
04:55 1020 30.12 849 25.07 2.1 35.7 48 -7.8 17.9
05:00 1020 30.12 849 25.07 1.8 35.2 51 -7.4 18.6
05:05 1020 30.12 849 25.07 1.3 34.3 53 -7.4 18.7
05:10 1020 30.12 849 25.07 0.9 33.6 52 -7.7 18.1
05:15 1020 30.12 849 25.07 1.4 34.5 50 -8 17.5
05:20 1020 30.12 849 25.07 1.8 35.3 49 -7.8 18
05:25 1020 30.12 849 25.07 1.7 35 51 -7.3 18.8
05:30 1020 30.12 849 25.07 1.4 34.5 51 -7.7 18.1
05:35 1020 30.12 849 25.07 1.2 34.2 51 -7.7 18.1
05:40 1020 30.12 849 25.07 1.1 33.9 51 -7.9 17.8
05:45 1020 30.12 849 25.07 1.1 34 52 -7.8 17.9
05:50 1020 30.12 849 25.07 0.6 33.1 57 -7 19.3
05:55 1020 30.12 849 25.07 -0.1 31.8 58 -7.5 18.5
06:00 1020 30.12 849 25.07 -0.1 31.8 57 -7.5 18.4
06:05 1020 30.12 849 25.07 -0.1 31.8 60 -6.9 19.5
06:10 1020 30.12 849 25.07 -0.7 30.8 60 -7.5 18.6
06:15 1020 30.12 849 25.07 -0.3 31.5 60 -7.2 19
06:20 1020 30.12 849 25.07 -0.1 31.8 59 -7.2 19
06:25 1020 30.12 849 25.07 -0.2 31.6 59 -7.4 18.7
06:30 1020 30.12 849 25.07 -0.1 31.9 57 -7.7 18.2
06:35 1020 30.12 849 25.07 -0.1 31.7 57 -7.7 18.1
06:40 1020 30.12 849 25.07 0.2 32.4 56 -7.6 18.3
06:45 1020 30.12 849 25.07 0.3 32.5 57 -7.4 18.8
06:50 1020 30.12 849 25.07 -0.1 31.8 59 -7.2 19.1
06:55 1020 30.12 849 25.07 -0.2 31.6 58 -7.4 18.6
07:00 1020 30.12 849 25.07 -0.2 31.7 59 -7.3 18.9
07:05 1020 30.12 849 25.07 -0.5 31.2 59 -7.4 18.6
07:10 1020 30.12 849 25.07 -0.5 31.1 59 -7.6 18.3
07:15 1020 30.12 849 25.07 -0.1 31.8 57 -7.6 18.3
07:20 1020 30.12 849 25.07 -0 32 57 -7.6 18.4
07:25 1020 30.12 849 25.07 0.2 32.4 55 -7.8 18
07:30 1020 30.12 849 25.07 0.5 32.9 54 -7.6 18.2
07:35 1020 30.12 849 25.07 0.5 33 54 -7.7 18.1
07:40 1020 30.12 849 25.07 0.5 33 54 -7.7 18.1
07:45 1020 30.12 849 25.07 0.4 32.6 56 -7.5 18.4
07:50 1020 30.12 849 25.07 0.3 32.5 56 -7.6 18.3
07:55 1020 30.12 849 25.07 0.3 32.6 55 -7.7 18.2
08:00 1020 30.12 849 25.07 0.6 33.1 53 -7.8 17.9
08:05 1020 30.12 849 25.07 0.8 33.5 52 -7.9 17.7
08:10 1020 30.12 849 25.07 1 33.9 53 -7.6 18.3
08:15 1020 30.12 849 25.07 0.4 32.8 55 -7.5 18.5
08:20 1020 30.12 850 25.1 0.3 32.5 56 -7.6 18.3
08:25 1020 30.12 850 25.1 0.3 32.6 56 -7.4 18.7
08:30 1020 30.12 850 25.1 0.2 32.3 58 -7.1 19.3
08:35 1020 30.12 850 25.1 0 32.1 56 -7.7 18.2
08:40 1020 30.12 850 25.1 0.5 32.9 55 -7.5 18.6
08:45 1021 30.15 850 25.1 0.8 33.4 54 -7.5 18.5
08:50 1021 30.15 850 25.1 1.1 33.9 52 -7.7 18.2
08:55 1021 30.15 850 25.1 1.3 34.4 51 -7.7 18.2
09:00 1021 30.15 850 25.1 1.8 35.2 50 -7.5 18.5
09:05 1021 30.15 850 25.1 2 35.6 51 -7.1 19.3
09:10 1021 30.15 850 25.1 2.1 35.8 52 -6.7 19.9
09:15 1021 30.15 850 25.1 2.3 36.1 50 -7.1 19.2
09:20 1021 30.15 850 25.1 2.4 36.3 49 -7.2 19
09:25 1021 30.15 850 25.1 2.8 37 46 -7.8 17.9
09:30 1021 30.15 850 25.1 4 39.2 41 -8 17.7
09:35 1021 30.15 850 25.1 5 40.9 38 -8.2 17.2
09:40 1021 30.15 850 25.1 6 42.7 35 -8.4 16.9
09:45 1021 30.15 850 25.1 5.7 42.2 42 -6.2 20.8
09:50 1021 30.15 850 25.1 5.7 42.3 42 -6.1 20.9
09:55 1021 30.15 850 25.1 5.6 42.1 38 -7.5 18.4
10:00 1021 30.15 850 25.1 5.3 41.6 40 -7.3 18.9
10:05 1021 30.15 850 25.1 5.2 41.4 39 -7.7 18.1
10:10 1021 30.15 850 25.1 5.3 41.5 42 -6.5 20.3
10:15 1021 30.15 850 25.1 4.9 40.8 42 -7 19.5
10:20 1021 30.15 850 25.1 5 41 40 -7.3 18.8
10:25 1021 30.15 850 25.1 5 41 43 -6.7 19.9
10:30 1021 30.15 850 25.1 5.3 41.6 41 -6.9 19.5
10:35 1021 30.15 850 25.1 6.2 43.1 35 -8 17.6
10:40 1021 30.15 850 25.1 6.8 44.2 37 -6.8 19.8
10:45 1021 30.15 850 25.1 7.3 45.1 35 -7 19.4
10:50 1021 30.15 850 25.1 7.5 45.5 34 -7.2 19
10:55 1021 30.15 850 25.1 7.6 45.7 34 -7.1 19.2
11:00 1021 30.15 850 25.1 7.5 45.5 36 -6.5 20.4
11:05 1021 30.15 850 25.1 6.9 44.5 38 -6.6 20.2
11:10 1021 30.15 850 25.1 7 44.6 38 -6.5 20.3
11:15 1021 30.15 850 25.1 7.3 45.1 36 -6.7 19.9
11:20 1021 30.15 850 25.1 7.9 46.2 34 -7.1 19.2
11:25 1021 30.15 850 25.1 8.6 47.4 33 -6.7 19.9
11:30 1021 30.15 850 25.1 8.9 47.9 33 -6.7 20
11:35 1020 30.12 850 25.1 9.1 48.4 32 -6.7 19.9
11:40 1020 30.12 850 25.1 8.8 47.8 34 -6.3 20.7
11:45 1020 30.12 850 25.1 8.7 47.6 34 -6.3 20.7
11:50 1020 30.12 849 25.07 9 48.1 34 -5.9 21.3
11:55 1020 30.12 849 25.07 9.4 48.9 33 -6.2 20.8
12:00 1020 30.12 849 25.07 9.5 49.2 33 -5.9 21.5
12:05 1020 30.12 849 25.07 9.3 48.8 34 -5.7 21.8
12:10 1020 30.12 849 25.07 9.4 48.9 34 -5.5 22.1
12:15 1020 30.12 849 25.07 9.8 49.6 34 -5.3 22.5
12:20 1020 30.12 849 25.07 9.8 49.6 34 -5.1 22.8
12:25 1020 30.12 849 25.07 9.2 48.6 35 -5.4 22.3
12:30 1020 30.12 849 25.07 9.3 48.7 34 -5.6 21.9
12:35 1020 30.12 849 25.07 9.4 49 35 -5.4 22.3
12:40 1020 30.12 849 25.07 9.3 48.7 35 -5.4 22.3
12:45 1020 30.12 849 25.07 9.6 49.3 34 -5.4 22.2
12:50 1020 30.12 849 25.07 9.7 49.4 34 -5.6 22
12:55 1019 30.09 849 25.07 9.7 49.5 33 -5.7 21.8
13:00 1019 30.09 849 25.07 9.7 49.4 33 -5.7 21.8
13:05 1019 30.09 849 25.07 9.8 49.7 34 -5.3 22.5
13:10 1019 30.09 848 25.04 9.7 49.4 34 -5.2 22.6
13:15 1019 30.09 848 25.04 9.8 49.7 34 -5.5 22.2
13:20 1019 30.09 848 25.04 10.1 50.2 33 -5.4 22.3
13:25 1019 30.09 848 25.04 10.2 50.3 33 -5.2 22.6
13:30 1019 30.09 848 25.04 10 49.9 34 -5.3 22.5
13:35 1019 30.09 848 25.04 9.7 49.4 33 -5.9 21.3
13:40 1019 30.09 848 25.04 9.9 49.9 33 -5.4 22.3
13:45 1019 30.09 848 25.04 10.3 50.5 34 -5 23
13:50 1019 30.09 848 25.04 10.3 50.6 33 -5 22.9
13:55 1019 30.09 848 25.04 10.4 50.7 33 -5 23
14:00 1019 30.09 848 25.04 10.8 51.5 32 -5.3 22.4
14:05 1018 30.06 848 25.04 10.6 51.1 32 -5.2 22.6
14:10 1018 30.06 848 25.04 11.1 52 32 -5.1 22.8
14:15 1018 30.06 848 25.04 11 51.8 31 -5.5 22.2
14:20 1018 30.06 848 25.04 11.2 52.2 30 -5.7 21.8
14:25 1018 30.06 847 25.01 11.6 52.9 29 -5.7 21.8
14:30 1018 30.06 847 25.01 11.4 52.5 30 -5.5 22.2
14:35 1018 30.06 847 25.01 11.7 53.1 29 -5.7 21.7
14:40 1018 30.06 847 25.01 12.2 54 28 -5.7 21.8
14:45 1018 30.06 847 25.01 12.3 54.2 28 -5.5 22.1
14:50 1018 30.06 847 25.01 12.1 53.8 28 -5.8 21.5
14:55 1018 30.06 847 25.01 12 53.6 29 -5.6 22
15:00 1018 30.06 847 25.01 12 53.7 28 -5.7 21.7
15:05 1018 30.06 847 25.01 11.8 53.3 29 -5.6 21.9
15:10 1018 30.06 847 25.01 12.2 54 28 -5.6 22
15:15 1018 30.06 847 25.01 11.6 52.9 29 -5.8 21.6
15:20 1018 30.06 847 25.01 11.7 53 30 -5.4 22.2
15:25 1018 30.06 847 25.01 11.5 52.6 29 -5.9 21.3
15:30 1018 30.06 847 25.01 10.7 51.3 30 -6.3 20.7
15:35 1018 30.06 847 25.01 11.1 51.9 30 -5.9 21.5
15:40 1018 30.06 847 25.01 11.6 52.9 29 -5.9 21.5
15:45 1018 30.06 847 25.01 12.1 53.8 28 -5.8 21.6
15:50 1018 30.06 847 25.01 11.8 53.2 29 -5.7 21.8
15:55 1018 30.06 847 25.01 11.2 52.2 29 -5.9 21.3
16:00 1018 30.06 847 25.01 10.9 51.7 29 -6.2 20.8
16:05 1018 30.06 847 25.01 10.4 50.8 31 -6.1 21
16:10 1018 30.06 847 25.01 10.1 50.2 31 -6.4 20.4
16:15 1018 30.06 847 25.01 10 50.1 32 -6 21.3
16:20 1018 30.06 847 25.01 9.8 49.7 32 -5.9 21.3
16:25 1018 30.06 847 25.01 9.6 49.2 34 -5.7 21.7
16:30 1018 30.06 847 25.01 9.3 48.7 34 -5.9 21.3
16:35 1018 30.06 847 25.01 9.3 48.7 33 -6.1 21.1
16:40 1018 30.06 847 25.01 9.1 48.4 36 -5.2 22.7
16:45 1018 30.06 847 25.01 8.8 47.9 37 -5.1 22.8
16:50 1018 30.06 847 25.01 8.8 47.9 37 -5 23
16:55 1018 30.06 847 25.01 8.7 47.7 37 -5.1 22.9
17:00 1018 30.06 847 25.01 8.4 47.1 38 -4.9 23.2
17:05 1018 30.06 847 25.01 8.1 46.7 40 -4.8 23.4
17:10 1018 30.06 847 25.01 7.7 45.8 41 -4.7 23.5
17:15 1018 30.06 847 25.01 7.3 45.2 41 -5 23
17:20 1018 30.06 847 25.01 7.2 44.9 40 -5.3 22.4
17:25 1018 30.06 847 25.01 7.1 44.7 41 -5.3 22.5
17:30 1018 30.06 847 25.01 7.1 44.7 42 -4.9 23.2
17:35 1018 30.06 847 25.01 7.2 44.9 43 -4.6 23.7
17:40 1018 30.06 847 25.01 6.9 44.4 46 -4.1 24.7
17:45 1018 30.06 847 25.01 6.4 43.5 48 -3.9 25
17:50 1018 30.06 847 25.01 6 42.9 48 -4.1 24.6
17:55 1018 30.06 847 25.01 5.8 42.5 49 -4.2 24.4
18:00 1018 30.06 847 25.01 5.8 42.5 47 -4.5 23.9
18:05 1018 30.06 847 25.01 5.9 42.6 48 -4.3 24.2
18:10 1018 30.06 847 25.01 5.8 42.5 49 -4.1 24.6
18:15 1018 30.06 847 25.01 5.6 42.1 49 -4.3 24.3
18:20 1018 30.06 847 25.01 5.1 41.2 51 -4.2 24.5
18:25 1018 30.06 847 25.01 5.1 41.2 46 -5.6 21.9
18:30 1018 30.06 847 25.01 5.7 42.2 44 -5.8 21.6
18:35 1018 30.06 847 25.01 5.8 42.4 43 -5.8 21.5
18:40 1018 30.06 847 25.01 5.8 42.5 44 -5.6 21.9
18:45 1018 30.06 847 25.01 5.4 41.7 46 -5.4 22.3
18:50 1018 30.06 847 25.01 5.1 41.3 47 -5.3 22.5
18:55 1018 30.06 847 25.01 4.8 40.6 49 -4.9 23.1
19:00 1018 30.06 847 25.01 4.1 39.4 50 -5.5 22.1
19:05 1018 30.06 847 25.01 3.9 39.1 51 -5.2 22.6
19:10 1018 30.06 847 25.01 4 39.3 50 -5.5 22.1
19:15 1018 30.06 847 25.01 4.1 39.4 51 -5.2 22.6
19:20 1018 30.06 847 25.01 4.1 39.4 51 -5.1 22.8
19:25 1018 30.06 847 25.01 4 39.2 51 -5.1 22.8
19:30 1018 30.06 847 25.01 3.8 38.8 52 -5.2 22.6
19:35 1018 30.06 847 25.01 4 39.1 52 -5.1 22.9
19:40 1018 30.06 847 25.01 3.6 38.5 52 -5.3 22.4
19:45 1018 30.06 847 25.01 3.4 38.2 51 -5.7 21.8
19:50 1018 30.06 847 25.01 3.4 38.2 51 -5.7 21.7
19:55 1018 30.06 847 25.01 3.5 38.3 50 -5.8 21.5
20:00 1018 30.06 847 25.01 3.5 38.2 51 -5.7 21.7
20:05 1018 30.06 847 25.01 3.2 37.8 52 -5.6 21.9
20:10 1018 30.06 847 25.01 3 37.4 53 -5.7 21.7
20:15 1018 30.06 847 25.01 2.8 37.1 54 -5.6 21.9
20:20 1018 30.06 847 25.01 2.7 36.8 54 -5.6 21.9
20:25 1018 30.06 847 25.01 2.6 36.7 54 -5.9 21.4
20:30 1018 30.06 847 25.01 3.3 37.9 49 -6.5 20.2
20:35 1018 30.06 847 25.01 3.9 39 47 -6.5 20.3
20:40 1018 30.06 847 25.01 4 39.3 48 -6.1 21.1
20:45 1018 30.06 847 25.01 3.8 38.8 48 -6.3 20.7
20:50 1018 30.06 847 25.01 3.4 38.2 50 -6 21.2
20:55 1018 30.06 847 25.01 3.1 37.5 51 -6 21.1
21:00 1018 30.06 847 25.01 2.9 37.2 52 -6 21.3
21:05 1018 30.06 847 25.01 2.8 37 52 -6.2 20.8
21:10 1018 30.06 847 25.01 2.9 37.2 51 -6.2 20.8
21:15 1018 30.06 847 25.01 3.1 37.6 50 -6.4 20.5
21:20 1018 30.06 847 25.01 3.4 38.1 48 -6.5 20.3
21:25 1018 30.06 847 25.01 3.6 38.4 47 -6.7 20
21:30 1018 30.06 847 25.01 3.7 38.6 47 -6.6 20.2
21:35 1018 30.06 847 25.01 3.5 38.4 48 -6.5 20.3
21:40 1018 30.06 847 25.01 3.5 38.3 47 -6.7 20
21:45 1018 30.06 847 25.01 3.8 38.8 47 -6.6 20.2
21:50 1018 30.06 847 25.01 3.7 38.6 49 -6.1 21.1
21:55 1018 30.06 847 25.01 3.2 37.7 51 -5.9 21.4
22:00 1018 30.06 847 25.01 3 37.3 52 -6.1 21.1
22:05 1018 30.06 847 25.01 3 37.3 51 -6.1 21
22:10 1018 30.06 847 25.01 2.9 37.3 52 -6 21.3
22:15 1018 30.06 847 25.01 2.9 37.2 52 -6 21.1
22:20 1018 30.06 847 25.01 2.9 37.2 52 -6.1 21
22:25 1018 30.06 847 25.01 2.9 37.2 51 -6.1 21
22:30 1018 30.06 847 25.01 3 37.4 50 -6.4 20.5
22:35 1018 30.06 847 25.01 3 37.4 52 -6 21.2
22:40 1018 30.06 847 25.01 2.7 36.9 54 -5.6 22
22:45 1018 30.06 847 25.01 2.6 36.6 55 -5.6 21.9
22:50 1018 30.06 847 25.01 2.7 36.8 54 -5.8 21.5
22:55 1018 30.06 847 25.01 2.8 37 53 -5.9 21.4
23:00 1018 30.06 847 25.01 2.9 37.2 52 -6.1 21
23:05 1018 30.06 847 25.01 2.9 37.2 53 -5.8 21.5
23:10 1018 30.06 847 25.01 2.9 37.3 51 -6.2 20.8
23:15 1018 30.06 847 25.01 3.1 37.6 50 -6.3 20.7
23:20 1018 30.06 847 25.01 3.3 38 49 -6.3 20.7
23:25 1018 30.06 847 25.01 3.5 38.3 48 -6.4 20.5
23:30 1018 30.06 847 25.01 3.4 38.1 51 -5.7 21.7
23:35 1018 30.06 847 25.01 3.1 37.5 53 -5.7 21.7
23:40 1018 30.06 847 25.01 3.1 37.7 51 -6 21.2
23:45 1018 30.06 847 25.01 3.3 37.9 51 -6 21.2
23:50 1018 30.06 847 25.01 3.5 38.3 48 -6.4 20.5
23:55 1018 30.06 847 25.01 3.7 38.7 47 -6.6 20.2
24:00 1018 30.06 847 25.01 3.8 38.8 47 -6.5 20.4